<?xml version="1.0" encoding="UTF-8"?>
<gpx version="1.1" creator="Csíkszéki EKE" xmlns="http://www.topografix.com/GPX/1/1">
  <metadata><name>SZATT 2026 - 10 km</name></metadata>
  <trk>
    <name>SZATT 2026 - 10 km</name>
    <trkseg>
      <trkpt lat="46.183499" lon="25.951817"><ele>737.1</ele><time>2026-08-25T06:41:16Z</time></trkpt>
      <trkpt lat="46.183459" lon="25.951947"><ele>742.6</ele><time>2026-08-25T06:41:49Z</time></trkpt>
      <trkpt lat="46.183190" lon="25.951983"><ele>746.2</ele><time>2026-08-25T06:43:25Z</time></trkpt>
      <trkpt lat="46.183170" lon="25.952075"><ele>746.1</ele><time>2026-08-25T06:45:24Z</time></trkpt>
      <trkpt lat="46.183101" lon="25.951969"><ele>745.6</ele><time>2026-08-25T06:47:42Z</time></trkpt>
      <trkpt lat="46.183086" lon="25.951867"><ele>745.0</ele><time>2026-08-25T06:47:52Z</time></trkpt>
      <trkpt lat="46.183045" lon="25.951867"><ele>749.1</ele><time>2026-08-25T06:48:24Z</time></trkpt>
      <trkpt lat="46.183053" lon="25.951985"><ele>743.6</ele><time>2026-08-25T06:51:42Z</time></trkpt>
      <trkpt lat="46.183267" lon="25.951927"><ele>740.7</ele><time>2026-08-25T06:53:03Z</time></trkpt>
      <trkpt lat="46.183492" lon="25.951921"><ele>736.3</ele><time>2026-08-25T06:53:36Z</time></trkpt>
      <trkpt lat="46.183518" lon="25.951851"><ele>737.1</ele><time>2026-08-25T06:53:44Z</time></trkpt>
      <trkpt lat="46.183777" lon="25.951716"><ele>732.8</ele><time>2026-08-25T06:54:12Z</time></trkpt>
      <trkpt lat="46.183811" lon="25.951636"><ele>731.2</ele><time>2026-08-25T06:54:19Z</time></trkpt>
      <trkpt lat="46.184191" lon="25.951291"><ele>728.1</ele><time>2026-08-25T06:55:09Z</time></trkpt>
      <trkpt lat="46.184298" lon="25.951243"><ele>725.5</ele><time>2026-08-25T06:55:29Z</time></trkpt>
      <trkpt lat="46.184574" lon="25.950860"><ele>722.1</ele><time>2026-08-25T06:56:06Z</time></trkpt>
      <trkpt lat="46.185067" lon="25.950294"><ele>722.6</ele><time>2026-08-25T06:57:10Z</time></trkpt>
      <trkpt lat="46.185202" lon="25.950263"><ele>721.6</ele><time>2026-08-25T06:57:23Z</time></trkpt>
      <trkpt lat="46.185353" lon="25.950066"><ele>722.5</ele><time>2026-08-25T06:57:45Z</time></trkpt>
      <trkpt lat="46.185359" lon="25.949994"><ele>722.3</ele><time>2026-08-25T06:59:04Z</time></trkpt>
      <trkpt lat="46.185629" lon="25.949372"><ele>723.2</ele><time>2026-08-25T07:02:07Z</time></trkpt>
      <trkpt lat="46.185699" lon="25.949064"><ele>724.8</ele><time>2026-08-25T07:02:33Z</time></trkpt>
      <trkpt lat="46.185935" lon="25.947119"><ele>713.5</ele><time>2026-08-25T07:05:07Z</time></trkpt>
      <trkpt lat="46.186049" lon="25.946455"><ele>711.6</ele><time>2026-08-25T07:05:55Z</time></trkpt>
      <trkpt lat="46.186063" lon="25.945871"><ele>709.2</ele><time>2026-08-25T07:08:44Z</time></trkpt>
      <trkpt lat="46.185769" lon="25.945796"><ele>709.5</ele><time>2026-08-25T07:11:42Z</time></trkpt>
      <trkpt lat="46.184735" lon="25.945777"><ele>713.0</ele><time>2026-08-25T07:13:42Z</time></trkpt>
      <trkpt lat="46.184335" lon="25.945538"><ele>709.3</ele><time>2026-08-25T07:14:34Z</time></trkpt>
      <trkpt lat="46.184097" lon="25.945244"><ele>703.6</ele><time>2026-08-25T07:15:11Z</time></trkpt>
      <trkpt lat="46.183889" lon="25.944728"><ele>701.1</ele><time>2026-08-25T07:15:58Z</time></trkpt>
      <trkpt lat="46.183743" lon="25.944488"><ele>700.9</ele><time>2026-08-25T07:16:19Z</time></trkpt>
      <trkpt lat="46.183528" lon="25.944264"><ele>700.6</ele><time>2026-08-25T07:16:42Z</time></trkpt>
      <trkpt lat="46.183097" lon="25.943970"><ele>699.4</ele><time>2026-08-25T07:17:28Z</time></trkpt>
      <trkpt lat="46.182746" lon="25.943821"><ele>698.5</ele><time>2026-08-25T07:18:02Z</time></trkpt>
      <trkpt lat="46.182338" lon="25.943758"><ele>698.8</ele><time>2026-08-25T07:18:49Z</time></trkpt>
      <trkpt lat="46.182048" lon="25.943514"><ele>693.9</ele><time>2026-08-25T07:19:25Z</time></trkpt>
      <trkpt lat="46.181925" lon="25.943463"><ele>691.6</ele><time>2026-08-25T07:19:39Z</time></trkpt>
      <trkpt lat="46.180812" lon="25.943485"><ele>683.8</ele><time>2026-08-25T07:22:36Z</time></trkpt>
      <trkpt lat="46.180764" lon="25.943368"><ele>683.4</ele><time>2026-08-25T07:23:31Z</time></trkpt>
      <trkpt lat="46.180765" lon="25.942628"><ele>680.5</ele><time>2026-08-25T07:24:57Z</time></trkpt>
      <trkpt lat="46.180770" lon="25.942491"><ele>679.8</ele><time>2026-08-25T07:25:14Z</time></trkpt>
      <trkpt lat="46.180817" lon="25.942404"><ele>681.2</ele><time>2026-08-25T07:25:22Z</time></trkpt>
      <trkpt lat="46.181541" lon="25.941954"><ele>677.2</ele><time>2026-08-25T07:27:04Z</time></trkpt>
      <trkpt lat="46.181830" lon="25.941897"><ele>677.5</ele><time>2026-08-25T07:27:33Z</time></trkpt>
      <trkpt lat="46.181950" lon="25.941774"><ele>674.8</ele><time>2026-08-25T07:31:22Z</time></trkpt>
      <trkpt lat="46.182155" lon="25.941707"><ele>679.0</ele><time>2026-08-25T07:53:25Z</time></trkpt>
      <trkpt lat="46.182155" lon="25.941482"><ele>682.5</ele><time>2026-08-25T07:55:15Z</time></trkpt>
      <trkpt lat="46.181818" lon="25.941486"><ele>689.9</ele><time>2026-08-25T07:59:38Z</time></trkpt>
      <trkpt lat="46.181690" lon="25.941430"><ele>692.4</ele><time>2026-08-25T08:00:05Z</time></trkpt>
      <trkpt lat="46.181546" lon="25.941065"><ele>698.5</ele><time>2026-08-25T08:01:09Z</time></trkpt>
      <trkpt lat="46.181356" lon="25.940810"><ele>698.2</ele><time>2026-08-25T08:01:40Z</time></trkpt>
      <trkpt lat="46.180870" lon="25.940455"><ele>715.3</ele><time>2026-08-25T08:03:13Z</time></trkpt>
      <trkpt lat="46.180618" lon="25.940392"><ele>717.8</ele><time>2026-08-25T08:04:08Z</time></trkpt>
      <trkpt lat="46.180479" lon="25.940213"><ele>726.9</ele><time>2026-08-25T08:04:35Z</time></trkpt>
      <trkpt lat="46.180262" lon="25.939796"><ele>723.9</ele><time>2026-08-25T08:05:21Z</time></trkpt>
      <trkpt lat="46.180205" lon="25.939559"><ele>722.5</ele><time>2026-08-25T08:05:38Z</time></trkpt>
      <trkpt lat="46.180011" lon="25.939117"><ele>727.7</ele><time>2026-08-25T08:07:20Z</time></trkpt>
      <trkpt lat="46.179563" lon="25.938206"><ele>743.6</ele><time>2026-08-25T08:26:59Z</time></trkpt>
      <trkpt lat="46.179164" lon="25.937579"><ele>749.1</ele><time>2026-08-25T08:29:35Z</time></trkpt>
      <trkpt lat="46.179142" lon="25.937363"><ele>752.0</ele><time>2026-08-25T08:30:11Z</time></trkpt>
      <trkpt lat="46.178985" lon="25.936944"><ele>753.5</ele><time>2026-08-25T08:31:20Z</time></trkpt>
      <trkpt lat="46.178859" lon="25.936851"><ele>753.2</ele><time>2026-08-25T08:31:42Z</time></trkpt>
      <trkpt lat="46.178218" lon="25.936774"><ele>749.7</ele><time>2026-08-25T08:33:08Z</time></trkpt>
      <trkpt lat="46.177970" lon="25.936683"><ele>752.6</ele><time>2026-08-25T08:33:36Z</time></trkpt>
      <trkpt lat="46.177774" lon="25.936680"><ele>755.2</ele><time>2026-08-25T08:34:02Z</time></trkpt>
      <trkpt lat="46.177318" lon="25.936382"><ele>757.3</ele><time>2026-08-25T08:34:59Z</time></trkpt>
      <trkpt lat="46.177120" lon="25.936102"><ele>760.2</ele><time>2026-08-25T08:35:33Z</time></trkpt>
      <trkpt lat="46.176957" lon="25.935682"><ele>761.0</ele><time>2026-08-25T08:36:32Z</time></trkpt>
      <trkpt lat="46.176803" lon="25.935422"><ele>757.3</ele><time>2026-08-25T08:40:51Z</time></trkpt>
      <trkpt lat="46.176114" lon="25.934669"><ele>753.3</ele><time>2026-08-25T08:42:33Z</time></trkpt>
      <trkpt lat="46.176039" lon="25.934459"><ele>755.8</ele><time>2026-08-25T08:42:47Z</time></trkpt>
      <trkpt lat="46.176080" lon="25.933320"><ele>757.5</ele><time>2026-08-25T08:44:32Z</time></trkpt>
      <trkpt lat="46.175978" lon="25.933115"><ele>760.9</ele><time>2026-08-25T08:45:49Z</time></trkpt>
      <trkpt lat="46.175764" lon="25.933010"><ele>758.5</ele><time>2026-08-25T08:46:13Z</time></trkpt>
      <trkpt lat="46.175494" lon="25.932767"><ele>753.5</ele><time>2026-08-25T08:46:52Z</time></trkpt>
      <trkpt lat="46.175036" lon="25.931974"><ele>749.9</ele><time>2026-08-25T08:48:56Z</time></trkpt>
      <trkpt lat="46.174783" lon="25.931703"><ele>748.1</ele><time>2026-08-25T08:49:31Z</time></trkpt>
      <trkpt lat="46.174591" lon="25.931550"><ele>746.3</ele><time>2026-08-25T08:49:52Z</time></trkpt>
      <trkpt lat="46.174030" lon="25.931250"><ele>746.1</ele><time>2026-08-25T08:50:51Z</time></trkpt>
      <trkpt lat="46.173717" lon="25.930882"><ele>746.7</ele><time>2026-08-25T08:51:37Z</time></trkpt>
      <trkpt lat="46.173277" lon="25.930095"><ele>749.9</ele><time>2026-08-25T08:52:50Z</time></trkpt>
      <trkpt lat="46.172997" lon="25.929329"><ele>744.5</ele><time>2026-08-25T08:53:56Z</time></trkpt>
      <trkpt lat="46.172832" lon="25.928972"><ele>743.8</ele><time>2026-08-25T08:54:25Z</time></trkpt>
      <trkpt lat="46.172764" lon="25.928573"><ele>745.3</ele><time>2026-08-25T08:54:57Z</time></trkpt>
      <trkpt lat="46.172764" lon="25.927624"><ele>748.1</ele><time>2026-08-25T08:58:33Z</time></trkpt>
      <trkpt lat="46.172901" lon="25.927238"><ele>749.0</ele><time>2026-08-25T08:59:00Z</time></trkpt>
      <trkpt lat="46.173032" lon="25.926503"><ele>747.2</ele><time>2026-08-25T08:59:46Z</time></trkpt>
      <trkpt lat="46.173032" lon="25.925465"><ele>751.0</ele><time>2026-08-25T09:01:25Z</time></trkpt>
      <trkpt lat="46.172860" lon="25.925181"><ele>751.9</ele><time>2026-08-25T09:01:52Z</time></trkpt>
      <trkpt lat="46.172669" lon="25.924703"><ele>751.9</ele><time>2026-08-25T09:02:50Z</time></trkpt>
      <trkpt lat="46.172532" lon="25.924644"><ele>754.2</ele><time>2026-08-25T09:03:10Z</time></trkpt>
      <trkpt lat="46.172268" lon="25.924644"><ele>760.2</ele><time>2026-08-25T09:11:28Z</time></trkpt>
      <trkpt lat="46.172049" lon="25.924748"><ele>760.1</ele><time>2026-08-25T09:12:08Z</time></trkpt>
      <trkpt lat="46.171679" lon="25.925113"><ele>760.3</ele><time>2026-08-25T09:13:28Z</time></trkpt>
      <trkpt lat="46.171297" lon="25.925113"><ele>758.9</ele><time>2026-08-25T09:14:09Z</time></trkpt>
      <trkpt lat="46.171119" lon="25.924802"><ele>755.3</ele><time>2026-08-25T09:14:57Z</time></trkpt>
      <trkpt lat="46.171059" lon="25.924470"><ele>756.0</ele><time>2026-08-25T09:15:29Z</time></trkpt>
      <trkpt lat="46.171033" lon="25.924086"><ele>755.2</ele><time>2026-08-25T09:15:54Z</time></trkpt>
      <trkpt lat="46.170936" lon="25.923941"><ele>754.9</ele><time>2026-08-25T09:16:06Z</time></trkpt>
      <trkpt lat="46.170150" lon="25.923847"><ele>757.7</ele><time>2026-08-25T09:17:24Z</time></trkpt>
      <trkpt lat="46.169728" lon="25.923472"><ele>756.1</ele><time>2026-08-25T09:18:14Z</time></trkpt>
      <trkpt lat="46.169642" lon="25.923329"><ele>758.2</ele><time>2026-08-25T09:18:39Z</time></trkpt>
      <trkpt lat="46.169642" lon="25.922605"><ele>754.0</ele><time>2026-08-25T09:20:43Z</time></trkpt>
      <trkpt lat="46.169992" lon="25.921475"><ele>749.5</ele><time>2026-08-25T09:22:06Z</time></trkpt>
      <trkpt lat="46.169992" lon="25.920974"><ele>748.7</ele><time>2026-08-25T09:23:53Z</time></trkpt>
      <trkpt lat="46.169899" lon="25.920693"><ele>745.2</ele><time>2026-08-25T09:28:15Z</time></trkpt>
      <trkpt lat="46.169892" lon="25.920248"><ele>745.4</ele><time>2026-08-25T09:29:19Z</time></trkpt>
      <trkpt lat="46.170046" lon="25.920166"><ele>746.0</ele><time>2026-08-25T09:29:47Z</time></trkpt>
      <trkpt lat="46.170538" lon="25.920166"><ele>749.0</ele><time>2026-08-25T09:33:02Z</time></trkpt>
      <trkpt lat="46.170888" lon="25.920324"><ele>750.6</ele><time>2026-08-25T09:33:37Z</time></trkpt>
      <trkpt lat="46.171144" lon="25.920388"><ele>750.8</ele><time>2026-08-25T09:34:16Z</time></trkpt>
      <trkpt lat="46.172027" lon="25.920368"><ele>751.6</ele><time>2026-08-25T09:36:32Z</time></trkpt>
      <trkpt lat="46.172704" lon="25.920056"><ele>752.5</ele><time>2026-08-25T09:38:45Z</time></trkpt>
      <trkpt lat="46.173271" lon="25.919686"><ele>753.0</ele><time>2026-08-25T09:40:17Z</time></trkpt>
      <trkpt lat="46.173772" lon="25.919183"><ele>753.8</ele><time>2026-08-25T09:41:14Z</time></trkpt>
      <trkpt lat="46.174082" lon="25.918923"><ele>755.6</ele><time>2026-08-25T09:41:59Z</time></trkpt>
      <trkpt lat="46.174785" lon="25.918414"><ele>758.2</ele><time>2026-08-25T09:43:12Z</time></trkpt>
      <trkpt lat="46.175836" lon="25.917927"><ele>755.9</ele><time>2026-08-25T09:47:02Z</time></trkpt>
      <trkpt lat="46.176775" lon="25.917357"><ele>753.1</ele><time>2026-08-25T09:48:51Z</time></trkpt>
      <trkpt lat="46.177114" lon="25.917283"><ele>749.1</ele><time>2026-08-25T09:49:42Z</time></trkpt>
      <trkpt lat="46.177114" lon="25.916952"><ele>747.7</ele><time>2026-08-25T09:50:31Z</time></trkpt>
      <trkpt lat="46.177220" lon="25.916510"><ele>747.0</ele><time>2026-08-25T09:51:04Z</time></trkpt>
      <trkpt lat="46.177225" lon="25.916131"><ele>746.1</ele><time>2026-08-25T09:51:55Z</time></trkpt>
      <trkpt lat="46.177246" lon="25.916096"><ele>746.5</ele><time>2026-08-25T09:53:08Z</time></trkpt>
      <trkpt lat="46.177531" lon="25.916044"><ele>744.2</ele><time>2026-08-25T09:53:35Z</time></trkpt>
      <trkpt lat="46.177636" lon="25.915716"><ele>741.3</ele><time>2026-08-25T09:54:27Z</time></trkpt>
      <trkpt lat="46.178139" lon="25.915130"><ele>736.1</ele><time>2026-08-25T09:55:34Z</time></trkpt>
      <trkpt lat="46.178200" lon="25.914942"><ele>733.2</ele><time>2026-08-25T09:56:12Z</time></trkpt>
      <trkpt lat="46.178200" lon="25.913936"><ele>733.5</ele><time>2026-08-25T09:57:25Z</time></trkpt>
      <trkpt lat="46.177993" lon="25.913518"><ele>733.5</ele><time>2026-08-25T09:58:03Z</time></trkpt>
      <trkpt lat="46.178155" lon="25.913938"><ele>733.1</ele><time>2026-08-25T10:18:35Z</time></trkpt>
      <trkpt lat="46.178155" lon="25.915097"><ele>734.8</ele><time>2026-08-25T10:20:30Z</time></trkpt>
      <trkpt lat="46.177755" lon="25.915527"><ele>736.7</ele><time>2026-08-25T10:21:27Z</time></trkpt>
      <trkpt lat="46.177651" lon="25.915682"><ele>737.8</ele><time>2026-08-25T10:21:43Z</time></trkpt>
      <trkpt lat="46.177486" lon="25.916066"><ele>741.1</ele><time>2026-08-25T10:22:29Z</time></trkpt>
      <trkpt lat="46.177184" lon="25.916161"><ele>745.7</ele><time>2026-08-25T10:23:24Z</time></trkpt>
      <trkpt lat="46.177184" lon="25.916520"><ele>746.3</ele><time>2026-08-25T10:25:02Z</time></trkpt>
      <trkpt lat="46.177228" lon="25.917039"><ele>749.3</ele><time>2026-08-25T10:25:49Z</time></trkpt>
      <trkpt lat="46.177298" lon="25.917323"><ele>751.8</ele><time>2026-08-25T10:27:02Z</time></trkpt>
      <trkpt lat="46.177399" lon="25.917335"><ele>748.9</ele><time>2026-08-25T10:29:20Z</time></trkpt>
      <trkpt lat="46.177442" lon="25.917410"><ele>752.0</ele><time>2026-08-25T10:29:36Z</time></trkpt>
      <trkpt lat="46.177555" lon="25.917421"><ele>753.8</ele><time>2026-08-25T10:29:56Z</time></trkpt>
      <trkpt lat="46.178168" lon="25.917653"><ele>753.7</ele><time>2026-08-25T10:31:45Z</time></trkpt>
      <trkpt lat="46.178201" lon="25.917710"><ele>753.7</ele><time>2026-08-25T10:31:52Z</time></trkpt>
      <trkpt lat="46.178412" lon="25.917832"><ele>753.7</ele><time>2026-08-25T10:32:19Z</time></trkpt>
      <trkpt lat="46.179659" lon="25.918250"><ele>751.7</ele><time>2026-08-25T10:34:18Z</time></trkpt>
      <trkpt lat="46.179912" lon="25.918387"><ele>750.6</ele><time>2026-08-25T10:36:01Z</time></trkpt>
      <trkpt lat="46.180096" lon="25.918610"><ele>749.4</ele><time>2026-08-25T10:36:25Z</time></trkpt>
      <trkpt lat="46.180354" lon="25.919012"><ele>749.7</ele><time>2026-08-25T10:37:02Z</time></trkpt>
      <trkpt lat="46.180476" lon="25.919506"><ele>750.6</ele><time>2026-08-25T10:37:39Z</time></trkpt>
      <trkpt lat="46.180726" lon="25.920038"><ele>752.8</ele><time>2026-08-25T10:38:29Z</time></trkpt>
      <trkpt lat="46.180813" lon="25.920297"><ele>750.1</ele><time>2026-08-25T10:38:48Z</time></trkpt>
      <trkpt lat="46.180867" lon="25.920594"><ele>748.5</ele><time>2026-08-25T10:39:08Z</time></trkpt>
      <trkpt lat="46.180954" lon="25.920859"><ele>746.9</ele><time>2026-08-25T10:39:29Z</time></trkpt>
      <trkpt lat="46.181485" lon="25.921824"><ele>741.9</ele><time>2026-08-25T10:40:53Z</time></trkpt>
      <trkpt lat="46.181617" lon="25.922144"><ele>740.3</ele><time>2026-08-25T10:41:16Z</time></trkpt>
      <trkpt lat="46.181630" lon="25.922314"><ele>740.5</ele><time>2026-08-25T10:42:29Z</time></trkpt>
      <trkpt lat="46.181840" lon="25.922979"><ele>739.4</ele><time>2026-08-25T10:44:03Z</time></trkpt>
      <trkpt lat="46.182007" lon="25.923334"><ele>738.5</ele><time>2026-08-25T10:44:40Z</time></trkpt>
      <trkpt lat="46.182162" lon="25.923519"><ele>738.0</ele><time>2026-08-25T10:44:58Z</time></trkpt>
      <trkpt lat="46.182225" lon="25.923680"><ele>738.4</ele><time>2026-08-25T10:45:14Z</time></trkpt>
      <trkpt lat="46.183078" lon="25.924898"><ele>743.7</ele><time>2026-08-25T10:47:32Z</time></trkpt>
      <trkpt lat="46.183177" lon="25.924995"><ele>743.8</ele><time>2026-08-25T10:47:57Z</time></trkpt>
      <trkpt lat="46.184432" lon="25.925856"><ele>733.4</ele><time>2026-08-25T10:50:13Z</time></trkpt>
      <trkpt lat="46.184742" lon="25.925987"><ele>732.2</ele><time>2026-08-25T10:50:42Z</time></trkpt>
      <trkpt lat="46.185050" lon="25.926775"><ele>732.0</ele><time>2026-08-25T10:53:33Z</time></trkpt>
      <trkpt lat="46.185120" lon="25.927085"><ele>732.8</ele><time>2026-08-25T10:53:55Z</time></trkpt>
      <trkpt lat="46.185275" lon="25.927234"><ele>732.0</ele><time>2026-08-25T10:54:44Z</time></trkpt>
      <trkpt lat="46.185576" lon="25.927257"><ele>733.5</ele><time>2026-08-25T10:55:24Z</time></trkpt>
      <trkpt lat="46.185892" lon="25.927386"><ele>732.3</ele><time>2026-08-25T10:55:53Z</time></trkpt>
      <trkpt lat="46.186020" lon="25.927523"><ele>734.4</ele><time>2026-08-25T10:56:08Z</time></trkpt>
      <trkpt lat="46.186211" lon="25.928878"><ele>732.6</ele><time>2026-08-25T10:57:38Z</time></trkpt>
      <trkpt lat="46.186211" lon="25.929867"><ele>735.0</ele><time>2026-08-25T10:59:54Z</time></trkpt>
      <trkpt lat="46.186107" lon="25.930519"><ele>735.8</ele><time>2026-08-25T11:00:42Z</time></trkpt>
      <trkpt lat="46.185964" lon="25.930860"><ele>736.5</ele><time>2026-08-25T11:01:08Z</time></trkpt>
      <trkpt lat="46.185722" lon="25.931643"><ele>737.4</ele><time>2026-08-25T11:02:04Z</time></trkpt>
      <trkpt lat="46.185393" lon="25.932233"><ele>734.9</ele><time>2026-08-25T11:03:02Z</time></trkpt>
      <trkpt lat="46.185216" lon="25.932879"><ele>735.4</ele><time>2026-08-25T11:03:47Z</time></trkpt>
      <trkpt lat="46.185069" lon="25.933280"><ele>735.6</ele><time>2026-08-25T11:04:15Z</time></trkpt>
      <trkpt lat="46.184638" lon="25.934158"><ele>733.1</ele><time>2026-08-25T11:05:25Z</time></trkpt>
      <trkpt lat="46.184544" lon="25.934513"><ele>732.1</ele><time>2026-08-25T11:05:46Z</time></trkpt>
      <trkpt lat="46.184379" lon="25.934766"><ele>729.9</ele><time>2026-08-25T11:06:07Z</time></trkpt>
      <trkpt lat="46.184062" lon="25.935044"><ele>727.2</ele><time>2026-08-25T11:06:43Z</time></trkpt>
      <trkpt lat="46.183927" lon="25.935210"><ele>725.1</ele><time>2026-08-25T11:07:02Z</time></trkpt>
      <trkpt lat="46.183722" lon="25.935597"><ele>729.5</ele><time>2026-08-25T11:07:32Z</time></trkpt>
      <trkpt lat="46.183365" lon="25.935867"><ele>729.7</ele><time>2026-08-25T11:08:09Z</time></trkpt>
      <trkpt lat="46.183124" lon="25.935943"><ele>724.4</ele><time>2026-08-25T11:08:33Z</time></trkpt>
      <trkpt lat="46.182878" lon="25.936134"><ele>724.1</ele><time>2026-08-25T11:09:12Z</time></trkpt>
      <trkpt lat="46.182772" lon="25.936414"><ele>729.2</ele><time>2026-08-25T11:09:48Z</time></trkpt>
      <trkpt lat="46.182772" lon="25.936685"><ele>726.0</ele><time>2026-08-25T11:14:11Z</time></trkpt>
      <trkpt lat="46.183164" lon="25.936705"><ele>726.4</ele><time>2026-08-25T11:15:56Z</time></trkpt>
      <trkpt lat="46.183395" lon="25.936836"><ele>725.9</ele><time>2026-08-25T11:16:25Z</time></trkpt>
      <trkpt lat="46.183506" lon="25.937038"><ele>727.2</ele><time>2026-08-25T11:17:25Z</time></trkpt>
      <trkpt lat="46.183668" lon="25.937215"><ele>725.3</ele><time>2026-08-25T11:17:43Z</time></trkpt>
      <trkpt lat="46.183727" lon="25.937368"><ele>724.5</ele><time>2026-08-25T11:17:55Z</time></trkpt>
      <trkpt lat="46.183748" lon="25.937872"><ele>717.3</ele><time>2026-08-25T11:18:39Z</time></trkpt>
      <trkpt lat="46.183867" lon="25.938511"><ele>712.2</ele><time>2026-08-25T11:20:43Z</time></trkpt>
      <trkpt lat="46.183911" lon="25.939030"><ele>705.9</ele><time>2026-08-25T11:21:24Z</time></trkpt>
      <trkpt lat="46.184104" lon="25.939387"><ele>704.0</ele><time>2026-08-25T11:21:50Z</time></trkpt>
      <trkpt lat="46.184178" lon="25.939850"><ele>699.6</ele><time>2026-08-25T11:22:10Z</time></trkpt>
      <trkpt lat="46.184274" lon="25.940049"><ele>697.5</ele><time>2026-08-25T11:22:24Z</time></trkpt>
      <trkpt lat="46.184407" lon="25.940051"><ele>701.8</ele><time>2026-08-25T11:22:42Z</time></trkpt>
      <trkpt lat="46.184509" lon="25.940134"><ele>698.5</ele><time>2026-08-25T11:23:25Z</time></trkpt>
      <trkpt lat="46.184509" lon="25.940395"><ele>690.4</ele><time>2026-08-25T11:24:01Z</time></trkpt>
      <trkpt lat="46.184304" lon="25.940617"><ele>689.0</ele><time>2026-08-25T11:24:30Z</time></trkpt>
      <trkpt lat="46.183815" lon="25.940828"><ele>684.8</ele><time>2026-08-25T11:25:17Z</time></trkpt>
      <trkpt lat="46.183601" lon="25.940978"><ele>680.5</ele><time>2026-08-25T11:25:43Z</time></trkpt>
      <trkpt lat="46.183485" lon="25.940989"><ele>677.4</ele><time>2026-08-25T11:25:53Z</time></trkpt>
      <trkpt lat="46.183395" lon="25.941080"><ele>680.2</ele><time>2026-08-25T11:26:23Z</time></trkpt>
      <trkpt lat="46.183123" lon="25.941189"><ele>678.9</ele><time>2026-08-25T11:26:59Z</time></trkpt>
      <trkpt lat="46.182749" lon="25.941415"><ele>676.3</ele><time>2026-08-25T11:27:47Z</time></trkpt>
      <trkpt lat="46.182577" lon="25.941430"><ele>674.7</ele><time>2026-08-25T11:28:01Z</time></trkpt>
      <trkpt lat="46.182321" lon="25.941527"><ele>679.2</ele><time>2026-08-25T11:28:29Z</time></trkpt>
      <trkpt lat="46.182212" lon="25.941626"><ele>676.6</ele><time>2026-08-25T11:28:43Z</time></trkpt>
      <trkpt lat="46.182017" lon="25.941680"><ele>673.5</ele><time>2026-08-25T11:29:02Z</time></trkpt>
      <trkpt lat="46.181846" lon="25.941872"><ele>678.3</ele><time>2026-08-25T11:29:31Z</time></trkpt>
      <trkpt lat="46.181518" lon="25.941938"><ele>681.8</ele><time>2026-08-25T11:30:01Z</time></trkpt>
      <trkpt lat="46.181124" lon="25.942144"><ele>682.3</ele><time>2026-08-25T11:30:40Z</time></trkpt>
      <trkpt lat="46.180824" lon="25.942347"><ele>684.8</ele><time>2026-08-25T11:31:21Z</time></trkpt>
      <trkpt lat="46.180747" lon="25.942527"><ele>688.0</ele><time>2026-08-25T11:31:31Z</time></trkpt>
      <trkpt lat="46.180747" lon="25.943120"><ele>684.8</ele><time>2026-08-25T11:32:16Z</time></trkpt>
      <trkpt lat="46.180819" lon="25.943500"><ele>681.2</ele><time>2026-08-25T11:33:07Z</time></trkpt>
      <trkpt lat="46.181989" lon="25.943513"><ele>695.7</ele><time>2026-08-25T11:35:24Z</time></trkpt>
      <trkpt lat="46.182341" lon="25.943694"><ele>700.4</ele><time>2026-08-25T11:36:13Z</time></trkpt>
      <trkpt lat="46.182370" lon="25.943759"><ele>700.9</ele><time>2026-08-25T11:36:20Z</time></trkpt>
      <trkpt lat="46.182570" lon="25.943767"><ele>703.1</ele><time>2026-08-25T11:36:40Z</time></trkpt>
      <trkpt lat="46.182938" lon="25.943890"><ele>701.6</ele><time>2026-08-25T11:37:12Z</time></trkpt>
      <trkpt lat="46.183237" lon="25.944129"><ele>698.2</ele><time>2026-08-25T11:37:45Z</time></trkpt>
      <trkpt lat="46.183476" lon="25.944247"><ele>700.7</ele><time>2026-08-25T11:38:10Z</time></trkpt>
      <trkpt lat="46.183819" lon="25.944599"><ele>701.2</ele><time>2026-08-25T11:38:55Z</time></trkpt>
      <trkpt lat="46.183925" lon="25.944840"><ele>703.0</ele><time>2026-08-25T11:39:18Z</time></trkpt>
      <trkpt lat="46.183987" lon="25.945147"><ele>703.6</ele><time>2026-08-25T11:39:41Z</time></trkpt>
      <trkpt lat="46.184096" lon="25.945329"><ele>703.5</ele><time>2026-08-25T11:39:58Z</time></trkpt>
      <trkpt lat="46.184364" lon="25.945592"><ele>707.6</ele><time>2026-08-25T11:40:31Z</time></trkpt>
      <trkpt lat="46.184821" lon="25.945716"><ele>713.8</ele><time>2026-08-25T11:41:18Z</time></trkpt>
      <trkpt lat="46.185105" lon="25.945716"><ele>709.4</ele><time>2026-08-25T11:41:52Z</time></trkpt>
      <trkpt lat="46.185735" lon="25.945836"><ele>705.3</ele><time>2026-08-25T11:42:57Z</time></trkpt>
      <trkpt lat="46.186047" lon="25.946050"><ele>711.4</ele><time>2026-08-25T11:43:48Z</time></trkpt>
      <trkpt lat="46.186047" lon="25.946442"><ele>710.7</ele><time>2026-08-25T11:44:23Z</time></trkpt>
      <trkpt lat="46.185959" lon="25.947003"><ele>713.4</ele><time>2026-08-25T11:45:05Z</time></trkpt>
      <trkpt lat="46.185902" lon="25.947653"><ele>718.5</ele><time>2026-08-25T11:45:48Z</time></trkpt>
      <trkpt lat="46.185772" lon="25.948340"><ele>723.8</ele><time>2026-08-25T11:46:38Z</time></trkpt>
      <trkpt lat="46.185759" lon="25.948679"><ele>720.2</ele><time>2026-08-25T11:47:09Z</time></trkpt>
      <trkpt lat="46.185684" lon="25.949254"><ele>719.6</ele><time>2026-08-25T11:47:47Z</time></trkpt>
      <trkpt lat="46.185546" lon="25.949556"><ele>718.7</ele><time>2026-08-25T11:48:06Z</time></trkpt>
      <trkpt lat="46.185408" lon="25.949973"><ele>722.9</ele><time>2026-08-25T11:48:41Z</time></trkpt>
      <trkpt lat="46.185293" lon="25.950180"><ele>723.4</ele><time>2026-08-25T11:49:00Z</time></trkpt>
      <trkpt lat="46.185059" lon="25.950288"><ele>727.3</ele><time>2026-08-25T11:49:27Z</time></trkpt>
      <trkpt lat="46.184219" lon="25.951333"><ele>728.5</ele><time>2026-08-25T11:51:22Z</time></trkpt>
      <trkpt lat="46.183594" lon="25.951839"><ele>742.2</ele><time>2026-08-25T11:52:50Z</time></trkpt>
      <trkpt lat="46.183507" lon="25.951808"><ele>739.9</ele><time>2026-08-25T11:53:44Z</time></trkpt>
    </trkseg>
  </trk>
</gpx>
